Aviation Digital Data Service (ADDS)

Output produced by METARs form (0827 UTC 23 January 2017)
found at http://aviationweather.gov/adds/metars/
 
KOAJ 230559Z 2306/2406 06010KT P6SM RA VCTS OVC005CB 
     FM230800 15009KT P6SM OVC007 
     FM230900 22007KT P6SM SCT015 BKN080 
     FM231800 25005KT P6SM VCSH BKN035 
     FM240000 30008KT P6SM BKN025 AMD LTD TO CLD VIS AND WIND